Mount Carroll, IL (61053)

7:06 AM CDT on September 02, 2015 (GMT -0500)
Aspen Drive | | Change Station
CLOSE
Current Station
Personal Weather Station
Location: Mt. Carroll, IL
Elevation: 810 ft
Nearby Weather Stations

Elev 810 ft 42.09 °N, 89.98 °W | Updated 24 seconds ago

Clear
Clear
65.4 °F
Feels Like 65.4 °F
N
0.0
Wind Variable Wind from ESE
Gusts 0.0 mph

Today
High -- | Low -- °F
--% Chance of Precip.
Yesterday
High -- | Low -- °F
Precip. -- in
6:26 AM 7:32 PM
Waning Gibbous, 81% visible
Pressure 30.04 in
Visibility 4.0 miles
Clouds Clear
Dew Point 64 °F
Humidity 96%
Rainfall 0.00 in
Snow Depth Not available.
UV 0 out of 12
Pollen 10.30 out of 12
Air Quality Not available.
Flu Activity Not available.
METAR KSFY 021155Z AUTO 18003KT 4SM BR CLR 21/19 A3004 RMK AO2 T02050194 10217 20200
Pressure 30.04 in
Visibility 4.0 miles
Clouds Clear
Dew Point 64 °F
Humidity 96%
Rainfall 0.00 in
Snow Depth Not available.
UV 0 out of 12
Pollen 10.30 out of 12
Air Quality Not available.
Flu Activity Not available.
METAR KSFY 021155Z AUTO 18003KT 4SM BR CLR 21/19 A3004 RMK AO2 T02050194 10217 20200

10-Day Weather Forecast

×

Almanac

Astronomy

Sep. 02, 2015 Rise Set
Actual Time
Civil Twilight
Nautical Twilight
Astronomical Twilight
Moon
Length of Visible Light
Length of Day
Tomorrow will be .
, % of the Moon is Illuminated

Today's Extremes

State Highs State Lows

Community

WunderPhotos

Upload Photos

1,851,736 photos uploaded!

WunderBlogs® & News

Nearby

Air Quality

  Air Quality AQ Index Pollutant
Not available.

Snow Depth

Station Depth Elevation

Earthquake Activity

City Distance Mag. Time & Date
Minimum magnitude displayed is 2.5.

Coastal Water Temperatures

Place Temperature

Stations

Nearby Weather Stations

Station Location Temp. Windchill Dew Point Humidity Wind Precip. Elev Updated Type